createdAt,value
2019-03-20T00:01:14.410Z,17.50
2019-03-20T00:03:45.930Z,18.67
2019-03-20T00:06:17.834Z,19.33
2019-03-20T00:08:49.435Z,20.57
2019-03-20T00:11:22.390Z,20.00
2019-03-20T00:13:54.100Z,19.03
2019-03-20T00:16:25.339Z,17.67
2019-03-20T00:18:56.560Z,18.50
2019-03-20T00:21:27.995Z,18.53
2019-03-20T00:23:59.126Z,20.57
2019-03-20T00:26:30.243Z,19.97
2019-03-20T00:29:01.408Z,20.23
2019-03-20T00:31:32.700Z,19.30
2019-03-20T00:34:04.439Z,17.17
2019-03-20T00:36:36.150Z,17.80
2019-03-20T00:39:09.752Z,16.47
2019-03-20T00:41:41.625Z,16.30
2019-03-20T00:44:13.268Z,15.80
2019-03-20T00:46:43.940Z,15.60
2019-03-20T00:49:15.384Z,15.67
2019-03-20T00:51:46.791Z,14.63
2019-03-20T00:54:18.159Z,15.57
2019-03-20T00:56:50.146Z,14.80
2019-03-20T00:59:21.842Z,31.83
2019-03-20T01:01:52.968Z,16.33
2019-03-20T01:04:24.302Z,17.70
2019-03-20T01:06:56.230Z,22.60
2019-03-20T01:09:27.862Z,22.63
2019-03-20T01:11:59.022Z,23.87
2019-03-20T01:14:30.349Z,23.17
2019-03-20T01:17:01.843Z,25.67
2019-03-20T01:19:34.418Z,26.10
2019-03-20T01:22:06.675Z,25.00
2019-03-20T01:24:38.334Z,23.43
2019-03-20T01:27:10.097Z,22.03
2019-03-20T01:29:40.999Z,22.03
2019-03-20T01:32:12.025Z,22.70
2019-03-20T01:34:43.856Z,22.33
2019-03-20T01:37:15.725Z,22.40
2019-03-20T01:39:47.706Z,21.53
2019-03-20T01:42:19.026Z,22.97
2019-03-20T01:44:50.545Z,22.30
2019-03-20T01:47:41.676Z,23.93
2019-03-20T01:50:13.175Z,22.67
2019-03-20T01:52:44.967Z,23.57
2019-03-20T01:55:16.423Z,23.70
2019-03-20T01:57:47.895Z,22.83
2019-03-20T02:00:19.379Z,22.57
2019-03-20T02:02:50.702Z,23.10
2019-03-20T02:05:22.204Z,23.53
2019-03-20T02:07:54.149Z,23.33
2019-03-20T02:10:25.015Z,24.57
2019-03-20T02:12:58.592Z,24.60
2019-03-20T02:15:38.223Z,24.73
2019-03-20T02:18:02.894Z,23.67
2019-03-20T02:20:35.334Z,23.80
2019-03-20T02:23:07.700Z,21.33
2019-03-20T02:25:39.799Z,21.00
2019-03-20T02:28:11.203Z,22.40
2019-03-20T02:30:42.737Z,21.63
2019-03-20T02:33:14.270Z,21.60
2019-03-20T02:35:51.868Z,20.23
2019-03-20T02:38:18.568Z,20.60
2019-03-20T02:40:49.511Z,19.60
2019-03-20T02:43:20.738Z,21.30
2019-03-20T02:45:52.218Z,21.37
2019-03-20T02:48:23.901Z,21.77
2019-03-20T02:50:56.209Z,21.03
2019-03-20T02:53:27.936Z,20.53
2019-03-20T02:55:59.170Z,20.53
2019-03-20T02:58:30.485Z,19.87
2019-03-20T03:01:03.111Z,19.60
2019-03-20T03:03:34.422Z,19.43
2019-03-20T03:06:07.496Z,20.97
2019-03-20T03:08:39.662Z,20.13
2019-03-20T03:11:10.998Z,18.73
2019-03-20T03:13:42.472Z,20.23
2019-03-20T03:16:14.052Z,19.73
2019-03-20T03:18:44.799Z,19.70
2019-03-20T03:21:16.717Z,18.13
2019-03-20T03:23:48.231Z,18.53
2019-03-20T03:26:20.180Z,21.97
2019-03-20T03:28:51.659Z,20.73
2019-03-20T03:34:11.733Z,20.17
2019-03-20T03:36:42.995Z,21.27
2019-03-20T03:39:14.415Z,21.57
2019-03-20T03:41:46.659Z,20.77
2019-03-20T03:44:17.308Z,20.93
2019-03-20T03:46:49.200Z,23.30
2019-03-20T03:49:20.442Z,20.63
2019-03-20T03:51:51.892Z,19.47
2019-03-20T03:54:23.095Z,20.30
2019-03-20T03:56:55.677Z,20.10
2019-03-20T03:59:26.965Z,21.73
2019-03-20T04:01:58.959Z,21.13
2019-03-20T04:04:31.606Z,20.33
2019-03-20T04:07:03.640Z,20.10
2019-03-20T04:09:35.128Z,19.10
2019-03-20T04:12:06.874Z,21.07
2019-03-20T04:14:37.767Z,17.13
2019-03-20T04:17:24.755Z,18.17
2019-03-20T04:19:56.853Z,17.97
2019-03-20T04:22:27.835Z,17.90
2019-03-20T04:25:00.805Z,16.53
2019-03-20T04:27:32.694Z,16.77
2019-03-20T04:30:05.314Z,15.93
2019-03-20T04:32:36.874Z,15.83
2019-03-20T04:35:09.169Z,15.47
2019-03-20T04:37:41.533Z,15.73
2019-03-20T04:40:13.526Z,16.17
2019-03-20T04:42:45.184Z,15.93
2019-03-20T04:45:16.971Z,17.13
2019-03-20T04:47:47.633Z,15.77
2019-03-20T04:50:19.700Z,16.37
2019-03-20T04:52:51.692Z,16.53
2019-03-20T04:55:23.643Z,16.47
2019-03-20T04:57:55.216Z,16.20
2019-03-20T05:00:26.905Z,14.77
2019-03-20T05:03:00.908Z,16.30
2019-03-20T05:05:31.586Z,16.33
2019-03-20T05:08:03.239Z,16.93
2019-03-20T05:10:34.596Z,14.90
2019-03-20T05:13:06.115Z,15.30
2019-03-20T05:15:38.540Z,14.80
2019-03-20T05:18:10.962Z,15.73
2019-03-20T05:20:43.200Z,15.87
2019-03-20T05:23:15.451Z,15.90
2019-03-20T05:25:47.900Z,16.73
2019-03-20T05:28:19.717Z,19.30
2019-03-20T05:30:51.831Z,19.77
2019-03-20T05:33:23.846Z,17.27
2019-03-20T05:35:56.215Z,17.33
2019-03-20T05:38:26.709Z,18.23
2019-03-20T05:40:57.302Z,16.67
2019-03-20T05:43:27.999Z,17.53
2019-03-20T05:46:00.488Z,18.30
2019-03-20T05:48:31.818Z,17.00
2019-03-20T05:51:02.444Z,16.70
2019-03-20T05:53:33.081Z,16.40
2019-03-20T05:56:04.209Z,16.47
2019-03-20T05:58:35.258Z,16.43
2019-03-20T06:01:05.867Z,17.00
2019-03-20T06:03:36.355Z,17.60
2019-03-20T06:06:06.964Z,17.73
2019-03-20T06:08:38.089Z,17.43
2019-03-20T06:11:08.706Z,16.67
2019-03-20T06:13:39.274Z,17.63
2019-03-20T06:16:09.760Z,16.73
2019-03-20T06:18:40.939Z,16.80
2019-03-20T06:21:11.572Z,19.90
2019-03-20T06:23:42.058Z,18.07
2019-03-20T06:26:12.574Z,18.80
2019-03-20T06:28:43.097Z,19.37
2019-03-20T06:31:14.045Z,18.97
2019-03-20T06:33:44.588Z,19.57
2019-03-20T06:36:15.140Z,18.17
2019-03-20T06:38:45.656Z,17.73
2019-03-20T06:41:16.203Z,19.17
2019-03-20T06:43:46.875Z,18.77
2019-03-20T06:46:17.537Z,20.10
2019-03-20T06:48:48.090Z,19.53
2019-03-20T06:51:18.812Z,19.70
2019-03-20T06:53:49.616Z,19.60
2019-03-20T06:56:20.159Z,17.90
2019-03-20T06:58:57.851Z,16.87
2019-03-20T07:01:29.870Z,17.13
2019-03-20T07:04:30.981Z,17.13
2019-03-20T07:07:09.556Z,18.43
2019-03-20T07:10:19.805Z,18.93
2019-03-20T07:12:50.393Z,18.77
2019-03-20T07:15:20.870Z,19.03
2019-03-20T07:17:51.502Z,18.40
2019-03-20T07:20:22.072Z,18.90
2019-03-20T07:22:52.681Z,17.30
2019-03-20T07:25:23.414Z,18.77
2019-03-20T07:27:54.014Z,15.93
2019-03-20T07:30:24.573Z,16.87
2019-03-20T07:32:55.130Z,20.17
2019-03-20T07:35:25.634Z,17.90
2019-03-20T07:37:56.542Z,19.23
2019-03-20T07:40:27.712Z,20.13
2019-03-20T07:43:08.181Z,18.57
2019-03-20T07:45:31.182Z,19.47
2019-03-20T07:48:01.775Z,19.57
2019-03-20T07:50:32.287Z,14.93
2019-03-20T07:53:02.818Z,15.47
2019-03-20T07:55:33.409Z,12.33
2019-03-20T07:58:03.921Z,15.90
2019-03-20T08:00:34.476Z,14.73
2019-03-20T08:03:05.440Z,17.00
2019-03-20T08:05:35.999Z,18.83
2019-03-20T08:08:07.754Z,17.33
2019-03-20T08:10:39.305Z,18.57
2019-03-20T08:13:10.002Z,18.60
2019-03-20T08:15:40.625Z,17.17
2019-03-20T08:18:12.041Z,16.50
2019-03-20T08:20:42.526Z,15.90
2019-03-20T08:23:13.127Z,16.33
2019-03-20T08:25:43.870Z,15.37
2019-03-20T08:28:14.394Z,14.63
2019-03-20T08:30:44.895Z,15.30
2019-03-20T08:33:16.065Z,16.60
2019-03-20T08:35:46.558Z,15.40
2019-03-20T08:38:18.649Z,16.20
2019-03-20T08:40:49.303Z,16.27
2019-03-20T08:43:20.301Z,16.03
2019-03-20T08:45:50.889Z,16.37
2019-03-20T08:48:21.582Z,15.27
2019-03-20T08:50:52.312Z,16.27
2019-03-20T08:53:22.969Z,17.47
2019-03-20T08:55:53.548Z,15.80
2019-03-20T08:58:24.182Z,15.27
2019-03-20T09:00:54.652Z,16.80
2019-03-20T09:03:25.236Z,14.50
2019-03-20T09:05:55.821Z,15.33
2019-03-20T09:08:29.570Z,16.60
2019-03-20T09:10:58.689Z,14.57
2019-03-20T09:13:29.230Z,15.73
2019-03-20T09:15:59.780Z,14.97
2019-03-20T09:18:30.303Z,14.60
2019-03-20T09:21:00.802Z,14.90
2019-03-20T09:23:31.981Z,14.27
2019-03-20T09:26:02.733Z,12.43
2019-03-20T09:28:33.338Z,14.00
2019-03-20T09:33:40.475Z,14.00
2019-03-20T09:36:11.027Z,13.17
2019-03-20T09:38:43.622Z,14.43
2019-03-20T09:41:13.762Z,13.60
2019-03-20T09:43:46.668Z,13.27
2019-03-20T09:46:35.772Z,12.93
2019-03-20T09:49:06.737Z,13.30
2019-03-20T09:51:38.508Z,11.10
2019-03-20T09:54:09.174Z,11.07
2019-03-20T09:56:39.823Z,11.93
2019-03-20T09:59:10.309Z,11.80
2019-03-20T10:01:41.126Z,10.13
2019-03-20T10:04:11.782Z,12.57
2019-03-20T10:06:42.385Z,11.20
2019-03-20T10:09:13.893Z,10.20
2019-03-20T10:11:44.574Z,12.20
2019-03-20T10:14:15.117Z,11.67
2019-03-20T10:16:45.704Z,10.80
2019-03-20T10:19:16.289Z,11.10
2019-03-20T10:21:46.889Z,9.80
2019-03-20T10:24:17.583Z,10.33
2019-03-20T10:26:48.279Z,10.20
2019-03-20T10:29:18.881Z,10.80
2019-03-20T10:31:49.574Z,10.13
2019-03-20T10:34:20.169Z,10.47
2019-03-20T10:36:50.689Z,10.90
2019-03-20T10:39:21.224Z,6.57
2019-03-20T10:41:51.709Z,6.47
2019-03-20T10:44:22.204Z,10.43
2019-03-20T10:46:52.787Z,10.60
2019-03-20T10:49:23.323Z,10.57
2019-03-20T10:51:53.879Z,7.77
2019-03-20T10:54:24.415Z,13.83
2019-03-20T10:56:55.353Z,56.60
2019-03-20T10:59:25.863Z,10.93
2019-03-20T11:02:30.135Z,11.10
2019-03-20T11:05:01.689Z,11.23
2019-03-20T11:07:32.234Z,10.97
2019-03-20T11:10:02.853Z,11.63
2019-03-20T11:12:33.382Z,10.73
2019-03-20T11:15:04.335Z,10.23
2019-03-20T11:17:34.992Z,9.57
2019-03-20T11:20:06.189Z,9.50
2019-03-20T11:22:36.957Z,10.37
2019-03-20T11:25:08.370Z,10.10
2019-03-20T11:27:38.989Z,2.93
2019-03-20T11:30:21.026Z,10.33
2019-03-20T11:32:51.878Z,9.97
2019-03-20T11:35:22.885Z,11.83
2019-03-20T11:37:53.746Z,9.93
2019-03-20T11:40:26.279Z,10.03
2019-03-20T11:42:57.637Z,9.67
2019-03-20T11:45:28.956Z,9.93
2019-03-20T11:47:59.769Z,10.50
2019-03-20T11:50:36.463Z,9.10
2019-03-20T11:53:07.718Z,10.57
2019-03-20T11:55:38.902Z,10.17
2019-03-20T11:58:09.629Z,10.37
2019-03-20T12:00:40.202Z,10.43
2019-03-20T12:03:11.116Z,10.27
2019-03-20T12:05:41.858Z,9.67
2019-03-20T12:08:12.377Z,10.43
2019-03-20T12:10:42.939Z,10.63
2019-03-20T12:13:13.597Z,10.83
2019-03-20T12:15:44.264Z,9.90
2019-03-20T12:18:14.880Z,10.77
2019-03-20T12:20:45.680Z,10.40
2019-03-20T12:23:16.325Z,9.63
2019-03-20T12:25:47.303Z,10.97
2019-03-20T12:28:18.212Z,9.87
2019-03-20T12:30:49.210Z,10.87
2019-03-20T12:33:20.550Z,11.03
2019-03-20T12:35:51.501Z,10.57
2019-03-20T12:38:22.042Z,10.67
2019-03-20T12:40:52.701Z,11.03
2019-03-20T12:43:23.549Z,11.63
2019-03-20T12:45:54.188Z,10.33
2019-03-20T12:48:25.514Z,10.73
2019-03-20T12:50:56.309Z,10.80
2019-03-20T12:53:29.868Z,11.07
2019-03-20T12:56:00.644Z,10.47
2019-03-20T12:58:31.235Z,10.70
2019-03-20T13:01:02.035Z,12.53
2019-03-20T13:03:32.781Z,11.87
2019-03-20T13:06:04.132Z,11.83
2019-03-20T13:08:34.769Z,11.47
2019-03-20T13:11:06.201Z,11.70
2019-03-20T13:13:37.196Z,11.70
2019-03-20T13:16:07.967Z,13.40
2019-03-20T13:18:38.861Z,13.30
2019-03-20T13:21:09.787Z,13.67
2019-03-20T13:23:41.021Z,12.43
2019-03-20T13:26:11.828Z,12.37
2019-03-20T13:28:42.432Z,13.57
2019-03-20T13:31:19.372Z,12.73
2019-03-20T13:33:50.203Z,13.00
2019-03-20T13:36:21.163Z,12.73
2019-03-20T13:38:52.453Z,13.30
2019-03-20T13:41:24.223Z,14.50
2019-03-20T13:43:55.255Z,13.50
2019-03-20T13:46:25.996Z,12.47
2019-03-20T13:48:57.453Z,14.43
2019-03-20T13:51:28.142Z,13.97
2019-03-20T13:53:58.743Z,13.03
2019-03-20T13:56:29.393Z,14.23
2019-03-20T13:59:00.129Z,12.77
2019-03-20T14:01:30.959Z,12.37
2019-03-20T14:04:01.514Z,11.63
2019-03-20T14:06:32.099Z,12.33
2019-03-20T14:09:02.961Z,12.43
2019-03-20T14:11:34.174Z,12.83
2019-03-20T14:14:04.898Z,11.97
2019-03-20T14:16:36.146Z,10.63
2019-03-20T14:19:07.242Z,9.70
2019-03-20T14:21:38.090Z,10.13
2019-03-20T14:24:09.193Z,10.40
2019-03-20T14:26:40.191Z,9.67
2019-03-20T14:29:10.928Z,10.60
2019-03-20T14:31:41.791Z,10.27
2019-03-20T14:34:13.324Z,10.13
2019-03-20T14:36:44.897Z,10.10
2019-03-20T14:39:16.165Z,9.80
2019-03-20T14:41:47.221Z,10.10
2019-03-20T14:44:18.687Z,9.37
2019-03-20T14:46:49.959Z,10.03
2019-03-20T14:49:21.141Z,11.17
2019-03-20T14:51:51.987Z,10.47
2019-03-20T14:54:23.106Z,10.20
2019-03-20T14:56:54.587Z,11.53
2019-03-20T14:59:27.278Z,11.50
2019-03-20T15:01:58.311Z,10.70
2019-03-20T15:04:29.561Z,10.37
2019-03-20T15:07:00.683Z,9.87
2019-03-20T15:09:31.656Z,11.17
2019-03-20T15:12:03.102Z,10.50
2019-03-20T15:14:34.055Z,9.37
2019-03-20T15:17:04.697Z,10.40
2019-03-20T15:19:35.684Z,9.87
2019-03-20T15:22:06.681Z,10.17
2019-03-20T15:24:37.653Z,9.63
2019-03-20T15:27:08.968Z,10.33
2019-03-20T15:29:39.787Z,9.43
2019-03-20T15:32:10.832Z,9.53
2019-03-20T15:34:41.817Z,8.83
2019-03-20T15:37:12.929Z,8.93
2019-03-20T15:39:43.964Z,9.67
2019-03-20T15:42:14.908Z,10.40
2019-03-20T15:44:46.199Z,10.80
2019-03-20T15:47:17.493Z,9.70
2019-03-20T15:49:48.701Z,10.23
2019-03-20T15:52:20.022Z,10.37
2019-03-20T15:54:51.186Z,10.90
2019-03-20T15:57:22.355Z,11.90
2019-03-20T15:59:52.919Z,12.43
2019-03-20T16:02:24.889Z,12.10
2019-03-20T16:04:56.490Z,11.73
2019-03-20T16:07:28.807Z,11.33
2019-03-20T16:09:59.905Z,10.30
2019-03-20T16:12:31.433Z,10.90
2019-03-20T16:15:02.764Z,10.43
2019-03-20T16:17:34.935Z,11.37
2019-03-20T16:20:06.315Z,10.20
2019-03-20T16:22:37.351Z,10.83
2019-03-20T16:25:09.487Z,9.80
2019-03-20T16:27:40.858Z,9.87
2019-03-20T16:30:15.046Z,10.77
2019-03-20T16:32:46.391Z,11.43
2019-03-20T16:35:17.749Z,11.00
2019-03-20T16:37:48.955Z,10.33
2019-03-20T16:40:21.249Z,10.47
2019-03-20T16:42:52.535Z,10.63
2019-03-20T16:45:26.168Z,10.17
2019-03-20T16:47:57.704Z,11.00
2019-03-20T16:50:31.846Z,10.27
2019-03-20T16:53:21.773Z,9.57
2019-03-20T16:55:52.857Z,9.83
2019-03-20T16:58:23.780Z,9.83
2019-03-20T17:00:54.835Z,10.83
2019-03-20T17:03:25.544Z,10.00
2019-03-20T17:05:56.346Z,9.20
2019-03-20T17:08:26.950Z,9.97
2019-03-20T17:10:57.645Z,9.53
2019-03-20T17:13:29.886Z,9.63
2019-03-20T17:16:00.812Z,9.20
2019-03-20T17:18:31.589Z,9.43
2019-03-20T17:21:02.397Z,9.97
2019-03-20T17:23:33.923Z,9.40
2019-03-20T17:26:06.127Z,10.37
2019-03-20T17:28:37.112Z,8.43
2019-03-20T17:31:08.153Z,10.73
2019-03-20T17:33:38.994Z,9.70
2019-03-20T17:36:10.310Z,10.10
2019-03-20T17:38:41.643Z,9.70
2019-03-20T17:41:13.275Z,10.30
2019-03-20T17:43:45.551Z,9.63
2019-03-20T17:46:18.042Z,10.40
2019-03-20T17:48:49.645Z,11.90
2019-03-20T17:51:20.245Z,10.83
2019-03-20T17:53:52.624Z,11.23
2019-03-20T17:56:23.967Z,10.80
2019-03-20T17:58:56.234Z,11.77
2019-03-20T18:01:29.737Z,11.23
2019-03-20T18:04:00.524Z,11.20
2019-03-20T18:06:31.908Z,11.97
2019-03-20T18:09:04.828Z,11.63
2019-03-20T18:11:35.966Z,12.23
2019-03-20T18:14:07.627Z,11.60
2019-03-20T18:16:40.001Z,10.83
2019-03-20T18:19:10.929Z,12.13
2019-03-20T18:21:41.565Z,12.47
2019-03-20T18:24:12.933Z,12.03
2019-03-20T18:26:44.075Z,11.77
2019-03-20T18:29:15.117Z,11.20
2019-03-20T18:31:46.490Z,12.13
2019-03-20T18:34:17.558Z,12.63
2019-03-20T18:36:48.097Z,12.30
2019-03-20T18:39:20.750Z,12.07
2019-03-20T18:41:57.781Z,13.90
2019-03-20T18:44:27.348Z,12.70
2019-03-20T18:46:57.938Z,12.77
2019-03-20T18:49:28.721Z,14.17
2019-03-20T18:51:59.385Z,11.90
2019-03-20T18:54:30.330Z,12.33
2019-03-20T18:57:01.342Z,11.87
2019-03-20T18:59:32.202Z,11.77
2019-03-20T19:02:02.881Z,10.80
2019-03-20T19:04:33.788Z,10.70
2019-03-20T19:07:05.154Z,10.40
2019-03-20T19:09:36.404Z,10.77
2019-03-20T19:12:08.823Z,10.63
2019-03-20T19:14:40.166Z,10.43
2019-03-20T19:17:10.943Z,10.30
2019-03-20T19:19:43.402Z,10.93
2019-03-20T19:22:14.791Z,11.57
2019-03-20T19:24:45.455Z,9.90
2019-03-20T19:27:16.610Z,8.93
2019-03-20T19:29:47.647Z,8.50
2019-03-20T19:32:18.935Z,8.87
2019-03-20T19:34:49.962Z,8.80
2019-03-20T19:37:20.962Z,9.07
2019-03-20T19:39:51.796Z,9.13
2019-03-20T19:42:22.792Z,9.67
2019-03-20T19:44:53.911Z,9.70
2019-03-20T19:47:24.796Z,9.43
2019-03-20T19:49:55.819Z,10.70
2019-03-20T19:52:26.603Z,9.97
2019-03-20T19:54:58.127Z,9.87
2019-03-20T19:57:29.661Z,10.17
2019-03-20T20:00:01.359Z,10.67
2019-03-20T20:02:32.445Z,9.37
2019-03-20T20:05:03.624Z,9.30
2019-03-20T20:07:34.553Z,9.70
2019-03-20T20:10:07.072Z,8.87
2019-03-20T20:12:38.287Z,9.03
2019-03-20T20:15:12.555Z,9.00
2019-03-20T20:17:43.361Z,9.30
2019-03-20T20:20:16.182Z,8.30
2019-03-20T20:22:46.811Z,9.80
2019-03-20T20:25:17.805Z,9.50
2019-03-20T20:27:49.094Z,8.90
2019-03-20T20:30:20.304Z,8.90
2019-03-20T20:32:51.233Z,9.87
2019-03-20T20:35:22.457Z,8.90
2019-03-20T20:37:53.659Z,10.10
2019-03-20T20:40:25.799Z,9.40
2019-03-20T20:42:57.260Z,10.77
2019-03-20T20:45:28.697Z,9.87
2019-03-20T20:47:59.544Z,10.70
2019-03-20T20:50:30.700Z,11.00
2019-03-20T20:53:01.908Z,11.03
2019-03-20T20:55:32.894Z,10.60
2019-03-20T20:58:04.287Z,10.30
2019-03-20T21:00:35.114Z,10.20
2019-03-20T21:03:06.104Z,12.27
2019-03-20T21:05:37.710Z,13.07
2019-03-20T21:08:08.624Z,13.33
2019-03-20T21:10:39.594Z,14.27
2019-03-20T21:13:10.673Z,13.97
2019-03-20T21:15:43.685Z,13.97
2019-03-20T21:19:00.248Z,14.87
2019-03-20T21:22:14.419Z,14.83
2019-03-20T21:24:45.687Z,16.20
2019-03-20T21:27:55.505Z,15.67
2019-03-20T21:30:42.497Z,14.13
2019-03-20T21:33:24.969Z,13.63
2019-03-20T21:36:33.379Z,13.33
2019-03-20T21:39:07.445Z,13.43
2019-03-20T21:42:35.183Z,12.63
2019-03-20T21:45:36.035Z,13.23
2019-03-20T21:48:07.830Z,12.90
2019-03-20T21:51:22.946Z,12.10
2019-03-20T21:54:35.063Z,12.90
2019-03-20T21:58:02.380Z,12.20
2019-03-20T22:01:28.020Z,12.00
2019-03-20T22:04:00.265Z,12.67
2019-03-20T22:07:14.127Z,11.93
2019-03-20T22:10:33.984Z,11.93
2019-03-20T22:13:32.516Z,11.40
2019-03-20T22:16:49.995Z,11.43
2019-03-20T22:19:59.270Z,11.53
2019-03-20T22:23:24.010Z,10.57
2019-03-20T22:26:49.783Z,11.70
2019-03-20T22:29:24.870Z,11.13
2019-03-20T22:32:32.842Z,11.27
2019-03-20T22:35:49.286Z,10.77
2019-03-20T22:38:58.412Z,11.00
2019-03-20T22:42:04.734Z,10.73
2019-03-20T22:44:38.727Z,11.30
2019-03-20T22:48:02.834Z,12.33
2019-03-20T22:51:13.501Z,10.70
2019-03-20T22:54:30.196Z,12.00
2019-03-20T22:57:29.076Z,11.33
2019-03-20T23:00:00.622Z,10.67
2019-03-20T23:03:02.796Z,10.47
2019-03-20T23:05:34.849Z,11.50
2019-03-20T23:08:14.214Z,11.63
2019-03-20T23:10:47.599Z,11.27
2019-03-20T23:13:19.698Z,10.77
2019-03-20T23:15:51.868Z,11.13
2019-03-20T23:18:23.662Z,10.17
2019-03-20T23:20:55.787Z,11.40
2019-03-20T23:23:27.677Z,11.83
2019-03-20T23:25:58.972Z,11.00
2019-03-20T23:28:31.207Z,11.13
2019-03-20T23:31:03.168Z,11.30
2019-03-20T23:33:35.060Z,11.20
2019-03-20T23:36:07.050Z,11.90
2019-03-20T23:38:38.883Z,11.23
2019-03-20T23:41:10.752Z,11.50
2019-03-20T23:43:52.449Z,12.47
2019-03-20T23:46:15.903Z,11.73
2019-03-20T23:48:57.791Z,11.87
2019-03-20T23:51:29.653Z,12.00
2019-03-20T23:54:01.455Z,12.30
2019-03-20T23:56:34.559Z,12.23
2019-03-20T23:59:07.175Z,14.33
